Time;durP1;ratioP1;P1;durP2;ratioP2;P2;SDS_P1;SDS_P2;PMS_P1;PMS_P2;Temp;Humidity;BMP_temperature;BMP_pressure;BME280_temperature;BME280_humidity;BME280_pressure;Samples;Min_cycle;Max_cycle;Signal;HPM_P1;HPM_P2
2023/08/05 00:01:13;;;;;;;;;;;;;;;23.70;49.35;100745.56;2269555;76;50806;-76
2023/08/05 00:04:15;;;;;;;;;;;;;;;23.70;49.34;100745.56;2295237;76;50399;-78
2023/08/05 00:07:16;;;;;;;;;;;;;;;23.72;49.37;100755.34;2294935;76;50750;-76
2023/08/05 00:10:18;;;;;;;;;;;;;;;23.69;49.36;100746.62;2295252;76;50258;-77
2023/08/05 00:13:20;;;;;;;;;;;;;;;23.69;49.35;100756.08;2307884;76;50355;-76
2023/08/05 00:16:21;;;;;;;;;;;;;;;23.70;49.30;100755.02;2294968;75;50232;-76
2023/08/05 00:19:23;;;;;;;;;;;;;;;23.69;49.32;100762.83;2295217;76;50309;-76
2023/08/05 00:22:24;;;;;;;;;;;;;;;23.70;49.34;100770.41;2319455;76;50311;-76
2023/08/05 00:25:26;;;;;;;;;;;;;;;23.69;49.33;100772.81;2307935;76;49598;-76
2023/08/05 00:28:28;;;;;;;;;;;;;;;23.69;49.32;100771.45;2303157;76;50129;-76
2023/08/05 00:31:29;;;;;;;;;;;;;;;23.69;49.32;100773.63;2305156;75;50619;-76
2023/08/05 00:34:31;;;;;;;;;;;;;;;23.69;49.32;100776.86;2321292;75;50372;-76
2023/08/05 00:37:33;;;;;;;;;;;;;;;23.68;49.32;100761.15;2283026;76;51147;-76
2023/08/05 00:40:34;;;;;;;;;;;;;;;23.68;49.31;100767.91;2309189;75;50093;-77
2023/08/05 00:43:36;;;;;;;;;;;;;;;23.69;49.31;100774.16;2320043;76;49775;-76
2023/08/05 00:46:37;;;;;;;;;;;;;;;23.67;49.31;100770.31;2307136;75;50632;-75
2023/08/05 00:49:39;;;;;;;;;;;;;;;23.68;49.30;100765.73;2309163;76;51167;-76
2023/08/05 00:52:41;;;;;;;;;;;;;;;23.66;49.32;100765.97;2321411;76;50359;-76
2023/08/05 00:55:42;;;;;;;;;;;;;;;23.68;49.33;100767.08;2321389;76;50360;-76
2023/08/05 00:58:44;;;;;;;;;;;;;;;23.66;49.31;100768.66;2311724;75;51411;-75
2023/08/05 01:01:46;;;;;;;;;;;;;;;23.66;49.32;100767.31;2276311;76;51059;-76
2023/08/05 01:04:47;;;;;;;;;;;;;;;23.67;49.27;100764.09;2321202;76;52197;-76
2023/08/05 01:07:49;;;;;;;;;;;;;;;23.67;49.30;100767.61;2321084;75;51456;-76
2023/08/05 01:10:50;;;;;;;;;;;;;;;23.67;49.27;100769.48;2321225;76;50252;-76
2023/08/05 01:13:52;;;;;;;;;;;;;;;23.66;49.28;100756.51;2309079;76;49830;-76
2023/08/05 01:16:53;;;;;;;;;;;;;;;23.66;49.27;100753.80;2308730;76;50599;-76
2023/08/05 01:19:55;;;;;;;;;;;;;;;23.66;49.27;100753.80;2309113;76;50752;-76
2023/08/05 01:22:57;;;;;;;;;;;;;;;23.66;49.26;100750.25;2321405;76;50188;-77
2023/08/05 01:25:58;;;;;;;;;;;;;;;23.66;49.27;100751.10;2309130;75;51443;-77
2023/08/05 01:29:00;;;;;;;;;;;;;;;23.65;49.25;100744.02;2321312;76;51425;-77
2023/08/05 01:32:01;;;;;;;;;;;;;;;23.65;49.25;100746.73;2321298;76;51505;-76
2023/08/05 01:35:03;;;;;;;;;;;;;;;23.65;49.26;100742.67;2321410;76;50721;-76
2023/08/05 01:38:06;;;;;;;;;;;;;;;23.65;49.23;100746.73;2321164;75;52406;-76
2023/08/05 01:41:07;;;;;;;;;;;;;;;23.65;49.22;100739.97;2309413;76;51444;-76
2023/08/05 01:44:09;;;;;;;;;;;;;;;23.65;49.22;100740.50;2321546;75;50697;-76
2023/08/05 01:47:10;;;;;;;;;;;;;;;23.65;49.23;100739.15;2321080;75;50402;-76
2023/08/05 01:50:12;;;;;;;;;;;;;;;23.64;49.21;100739.68;2309214;76;49572;-76
2023/08/05 01:53:13;;;;;;;;;;;;;;;23.64;49.20;100736.98;2321564;75;50416;-77
2023/08/05 01:56:15;;;;;;;;;;;;;;;23.64;49.20;100739.68;2321235;75;51564;-77
2023/08/05 01:59:17;;;;;;;;;;;;;;;23.64;49.18;100737.50;2320536;76;51433;-76
2023/08/05 02:02:18;;;;;;;;;;;;;;;23.64;49.20;100734.80;2234209;78;53328;-77
2023/08/05 02:05:20;;;;;;;;;;;;;;;23.63;49.21;100736.66;2258115;77;50680;-76
2023/08/05 02:08:21;;;;;;;;;;;;;;;23.63;49.20;100730.42;2277492;77;51539;-76
2023/08/05 02:11:23;;;;;;;;;;;;;;;23.63;49.18;100734.48;2257647;78;51423;-76
2023/08/05 02:14:24;;;;;;;;;;;;;;;23.63;49.17;100738.00;2258027;78;52345;-77
2023/08/05 02:17:26;;;;;;;;;;;;;;;23.62;49.16;100734.19;2258098;77;51530;-77
2023/08/05 02:20:28;;;;;;;;;;;;;;;23.63;49.16;100733.95;2277720;78;50233;-76
2023/08/05 02:23:30;;;;;;;;;;;;;;;23.62;49.15;100737.70;2258269;77;50097;-76
2023/08/05 02:26:31;;;;;;;;;;;;;;;23.62;49.17;100740.41;2278662;76;51461;-78
2023/08/05 02:29:33;;;;;;;;;;;;;;;23.61;49.16;100741.96;2313829;75;51440;-76
2023/08/05 02:32:34;;;;;;;;;;;;;;;23.63;49.13;100743.93;2322129;76;50259;-76
2023/08/05 02:35:36;;;;;;;;;;;;;;;23.62;49.14;100745.81;2322202;75;50258;-76
2023/08/05 02:38:38;;;;;;;;;;;;;;;23.62;49.11;100745.81;2274528;76;51663;-76
2023/08/05 02:41:40;;;;;;;;;;;;;;;23.62;49.14;100751.74;2300298;76;51558;-76
2023/08/05 02:44:41;;;;;;;;;;;;;;;23.61;49.13;100749.56;2322123;75;50307;-76
2023/08/05 02:47:43;;;;;;;;;;;;;;;23.62;49.12;100762.55;2299945;76;50666;-76
2023/08/05 02:50:44;;;;;;;;;;;;;;;23.61;49.12;100764.42;2274516;76;52543;-76
2023/08/05 02:53:46;;;;;;;;;;;;;;;23.61;49.10;100760.38;2322251;75;51587;-76
2023/08/05 02:56:48;;;;;;;;;;;;;;;23.61;49.08;100759.02;2321822;75;51446;-76
2023/08/05 02:59:49;;;;;;;;;;;;;;;23.61;49.08;100763.57;2305656;76;51400;-76
2023/08/05 03:02:51;;;;;;;;;;;;;;;23.60;49.09;100765.98;2319431;76;50257;-76
2023/08/05 03:05:52;;;;;;;;;;;;;;;23.59;49.10;100769.20;2319517;75;50284;-76
2023/08/05 03:08:54;;;;;;;;;;;;;;;23.59;49.12;100765.16;2294975;76;50343;-76
2023/08/05 03:11:55;;;;;;;;;;;;;;;23.60;49.09;100765.45;2319529;76;50634;-76
2023/08/05 03:14:57;;;;;;;;;;;;;;;23.59;49.07;100761.10;2269835;76;50928;-76
2023/08/05 03:17:58;;;;;;;;;;;;;;;23.60;49.07;100767.33;2319179;75;51295;-76
2023/08/05 03:21:00;;;;;;;;;;;;;;;23.59;49.06;100774.61;2295131;76;51465;-76
2023/08/05 03:24:02;;;;;;;;;;;;;;;23.59;49.07;100761.63;2295377;76;51327;-76
2023/08/05 03:27:03;;;;;;;;;;;;;;;23.58;49.05;100754.05;2308177;76;50917;-76
2023/08/05 03:30:05;;;;;;;;;;;;;;;23.59;49.04;100755.70;2321174;76;51612;-76
2023/08/05 03:33:07;;;;;;;;;;;;;;;23.59;49.05;100751.65;2319483;76;50417;-76
2023/08/05 03:36:09;;;;;;;;;;;;;;;23.58;49.05;100751.35;2319443;75;50275;-77
2023/08/05 03:39:10;;;;;;;;;;;;;;;23.58;49.06;100751.35;2269750;76;52070;-76
2023/08/05 03:42:12;;;;;;;;;;;;;;;23.58;49.06;100751.35;2295383;76;50650;-76
2023/08/05 03:45:13;;;;;;;;;;;;;;;23.58;49.05;100750.00;2295299;76;51434;-75
2023/08/05 03:48:15;;;;;;;;;;;;;;;23.58;49.05;100754.05;2294548;76;50638;-76
2023/08/05 03:51:17;;;;;;;;;;;;;;;23.58;49.04;100759.45;2269956;76;52441;-76
2023/08/05 03:54:18;;;;;;;;;;;;;;;23.58;49.01;100750.00;2295288;76;50738;-77
2023/08/05 03:57:20;;;;;;;;;;;;;;;23.58;49.04;100756.75;2319719;75;50255;-76
2023/08/05 04:00:21;;;;;;;;;;;;;;;23.59;49.03;100761.10;2321098;76;50322;-75
2023/08/05 04:03:23;;;;;;;;;;;;;;;23.58;49.03;100759.95;2269785;76;51106;-76
2023/08/05 04:06:25;;;;;;;;;;;;;;;23.58;49.05;100766.21;2295280;75;51529;-75
2023/08/05 04:09:27;;;;;;;;;;;;;;;23.58;49.04;100768.91;2295395;76;50413;-75
2023/08/05 04:12:29;;;;;;;;;;;;;;;23.57;49.08;100763.18;2319825;76;51498;-76
2023/08/05 04:15:33;;;;;;;;;;;;;;;23.58;49.06;100768.05;2308566;76;51003;-76
2023/08/05 04:18:35;;;;;;;;;;;;;;;23.57;49.06;100764.53;2295851;76;22404;-75
2023/08/05 04:21:45;;;;;;;;;;;;;;;23.59;49.05;100765.16;2320369;76;51545;-76
2023/08/05 04:24:41;;;;;;;;;;;;;;;23.59;49.02;100763.80;2320075;76;22417;-76
2023/08/05 04:27:43;;;;;;;;;;;;;;;23.59;49.02;100773.26;2320375;75;24334;-76
2023/08/05 04:30:44;;;;;;;;;;;;;;;23.57;49.05;100768.58;2293135;76;51522;-75
2023/08/05 04:33:47;;;;;;;;;;;;;;;23.58;49.04;100775.66;2333522;76;51539;-75
2023/08/05 04:36:49;;;;;;;;;;;;;;;23.59;49.05;100780.01;2299496;76;51594;-75
2023/08/05 04:39:51;;;;;;;;;;;;;;;23.60;49.04;100794.34;2299537;76;51086;-75
2023/08/05 04:42:53;;;;;;;;;;;;;;;23.58;49.05;100782.42;2299470;76;51554;-76
2023/08/05 04:45:54;;;;;;;;;;;;;;;23.59;49.05;100784.06;2301459;75;51410;-76
2023/08/05 04:48:56;;;;;;;;;;;;;;;23.59;49.06;100790.81;2302373;76;50702;-75
2023/08/05 04:51:57;;;;;;;;;;;;;;;23.59;49.04;100789.47;2300823;76;52551;-76
2023/08/05 04:55:01;;;;;;;;;;;;;;;23.59;49.04;100785.41;2333867;76;51476;-76
2023/08/05 04:58:02;;;;;;;;;;;;;;;23.59;49.05;100782.71;2309797;75;51507;-76
2023/08/05 05:01:04;;;;;;;;;;;;;;;23.58;49.04;100779.72;2296535;76;50578;-76
2023/08/05 05:04:05;;;;;;;;;;;;;;;23.59;49.03;100770.55;2333737;76;51437;-76
2023/08/05 05:07:07;;;;;;;;;;;;;;;23.60;49.06;100772.20;2299245;76;51530;-76
2023/08/05 05:10:09;;;;;;;;;;;;;;;23.60;49.05;100768.67;2333415;75;51491;-76
2023/08/05 05:13:10;;;;;;;;;;;;;;;23.62;49.01;100773.34;2299380;76;51426;-76
2023/08/05 05:16:12;;;;;;;;;;;;;;;23.64;49.09;100787.48;2298966;75;51493;-76
2023/08/05 05:19:13;;;;;;;;;;;;;;;23.69;49.08;100803.35;2299304;76;51440;-76
2023/08/05 05:22:18;;;;;;;;;;;;;;;23.66;49.18;100801.08;2299407;76;51415;-76
2023/08/05 05:25:20;;;;;;;;;;;;;;;23.71;49.01;100807.17;2299187;76;50557;-76
2023/08/05 05:28:21;;;;;;;;;;;;;;;23.73;48.97;100813.23;2298831;76;50961;-76
2023/08/05 05:31:23;;;;;;;;;;;;;;;23.72;49.05;100806.67;2305385;76;51580;-76
2023/08/05 05:34:25;;;;;;;;;;;;;;;23.74;49.04;100805.95;2319674;76;51456;-76
2023/08/05 05:37:26;;;;;;;;;;;;;;;23.80;48.95;100805.11;2319370;75;50252;-75
2023/08/05 05:40:28;;;;;;;;;;;;;;;23.83;48.91;100812.26;2308138;76;52346;-76
2023/08/05 05:43:29;;;;;;;;;;;;;;;23.86;48.93;100809.65;2319593;76;50387;-76
2023/08/05 05:46:34;;;;;;;;;;;;;;;23.92;48.83;100804.75;2319467;75;52235;-77
2023/08/05 05:49:36;;;;;;;;;;;;;;;23.97;48.82;100802.23;2319608;76;51343;-77
2023/08/05 05:52:38;;;;;;;;;;;;;;;24.03;48.79;100800.02;2270026;76;52385;-77
2023/08/05 05:55:41;;;;;;;;;;;;;;;24.08;48.74;100805.60;2295290;76;51457;-77
2023/08/05 05:58:43;;;;;;;;;;;;;;;24.21;48.51;100803.88;2304956;75;50526;-77
2023/08/05 06:01:44;;;;;;;;;;;;;;;24.23;48.47;100799.91;2305726;76;51458;-77
2023/08/05 06:04:47;;;;;;;;;;;;;;;24.28;48.39;100796.56;2273701;76;52363;-77
2023/08/05 06:07:48;;;;;;;;;;;;;;;24.35;48.26;100794.62;2299422;76;50755;-77
2023/08/05 06:10:51;;;;;;;;;;;;;;;24.40;48.19;100784.50;2333267;76;50423;-77
2023/08/05 06:13:53;;;;;;;;;;;;;;;24.46;48.11;100792.63;2299520;76;51518;-77
2023/08/05 06:16:55;;;;;;;;;;;;;;;24.51;48.04;100792.80;2298369;76;52513;-77
2023/08/05 06:19:56;;;;;;;;;;;;;;;24.57;47.91;100797.02;2299256;76;50413;-77
2023/08/05 06:22:58;;;;;;;;;;;;;;;24.58;47.96;100794.61;2299194;75;50736;-77
2023/08/05 06:25:59;;;;;;;;;;;;;;;24.58;47.92;100794.61;2333290;75;51547;-77
2023/08/05 06:29:01;;;;;;;;;;;;;;;24.51;48.00;100792.80;2271459;76;52368;-77
2023/08/05 06:32:03;;;;;;;;;;;;;;;24.49;47.89;100790.82;2296824;76;51448;-77
2023/08/05 06:35:05;;;;;;;;;;;;;;;24.43;48.00;100796.23;2295131;76;50270;-77
2023/08/05 06:38:06;;;;;;;;;;;;;;;24.43;47.83;100797.59;2295174;76;51560;-77
2023/08/05 06:41:08;;;;;;;;;;;;;;;24.38;47.92;100794.70;2295367;76;51418;-77
2023/08/05 06:44:09;;;;;;;;;;;;;;;24.33;47.94;100801.62;2319503;76;51446;-77
2023/08/05 06:47:11;;;;;;;;;;;;;;;24.28;48.01;100804.67;2319358;75;51524;-77
2023/08/05 06:50:13;;;;;;;;;;;;;;;24.26;48.04;100810.81;2294830;76;51425;-77
2023/08/05 06:53:14;;;;;;;;;;;;;;;24.23;48.13;100805.84;2308127;76;50162;-77
2023/08/05 06:56:16;;;;;;;;;;;;;;;24.24;48.10;100806.14;2295203;75;51510;-77
2023/08/05 06:59:18;;;;;;;;;;;;;;;24.21;48.11;100801.17;2293305;76;51441;-77
2023/08/05 07:02:19;;;;;;;;;;;;;;;24.21;48.10;100799.82;2314805;76;51433;-76
2023/08/05 07:05:21;;;;;;;;;;;;;;;24.19;48.15;100793.80;2309134;76;50970;-76
2023/08/05 07:08:24;;;;;;;;;;;;;;;24.18;48.16;100797.56;2309110;76;50226;-76
2023/08/05 07:11:26;;;;;;;;;;;;;;;24.17;48.19;100797.23;2309648;76;50339;-76
2023/08/05 07:14:27;;;;;;;;;;;;;;;24.13;48.21;100793.62;2309516;76;50221;-76
2023/08/05 07:17:29;;;;;;;;;;;;;;;24.15;48.24;100785.80;2283103;76;51744;-76
2023/08/05 07:20:30;;;;;;;;;;;;;;;24.15;48.18;100778.55;2309259;76;51426;-76
2023/08/05 07:23:32;;;;;;;;;;;;;;;24.13;48.24;100777.92;2309406;76;52103;-76
2023/08/05 07:26:34;;;;;;;;;;;;;;;24.12;48.28;100791.97;2309284;75;50727;-76
2023/08/05 07:29:37;;;;;;;;;;;;;;;24.12;48.26;100791.12;2267105;76;52487;-76
2023/08/05 07:32:39;;;;;;;;;;;;;;;24.12;48.27;100796.03;2270601;78;22421;-76
2023/08/05 07:35:40;;;;;;;;;;;;;;;24.13;48.28;100798.20;2280579;76;51539;-76
2023/08/05 07:38:44;;;;;;;;;;;;;;;24.12;48.28;100801.93;2280327;76;51453;-76
2023/08/05 07:41:45;;;;;;;;;;;;;;;24.13;48.27;100799.02;2280812;77;22331;-76
2023/08/05 07:44:49;;;;;;;;;;;;;;;24.10;48.33;100802.70;2280599;77;51428;-76
2023/08/05 07:47:51;;;;;;;;;;;;;;;24.11;48.30;100798.41;2280631;76;22366;-76
2023/08/05 07:50:53;;;;;;;;;;;;;;;24.11;48.34;100798.41;2280487;78;50329;-76
2023/08/05 07:53:57;;;;;;;;;;;;;;;24.12;48.31;100800.58;2243890;78;51226;-76
2023/08/05 07:56:58;;;;;;;;;;;;;;;24.12;48.33;100794.67;2269752;76;22427;-75
2023/08/05 08:00:00;;;;;;;;;;;;;;;24.10;48.33;100782.42;2298738;76;50685;-76
2023/08/05 08:03:02;;;;;;;;;;;;;;;24.12;48.30;100770.84;2333021;76;51443;-76
2023/08/05 08:06:03;;;;;;;;;;;;;;;24.09;48.35;100766.70;2298953;75;51185;-76
2023/08/05 08:09:05;;;;;;;;;;;;;;;24.10;48.36;100772.42;2299047;76;50802;-76
2023/08/05 08:12:07;;;;;;;;;;;;;;;24.10;48.32;100777.84;2333091;76;51429;-76
2023/08/05 08:15:09;;;;;;;;;;;;;;;24.09;48.38;100785.63;2299480;76;50454;-76
2023/08/05 08:18:10;;;;;;;;;;;;;;;24.10;48.36;100772.42;2273365;76;49506;-77
2023/08/05 08:21:12;;;;;;;;;;;;;;;24.08;48.43;100769.11;2299337;76;50694;-77
2023/08/05 08:24:13;;;;;;;;;;;;;;;24.10;48.37;100776.48;2333337;76;50615;-77
2023/08/05 08:27:15;;;;;;;;;;;;;;;24.15;48.31;100772.28;2297836;76;51473;-77
2023/08/05 08:30:17;;;;;;;;;;;;;;;24.12;48.37;100770.34;2275429;76;51744;-77
2023/08/05 08:33:18;;;;;;;;;;;;;;;24.15;48.35;100773.63;2278976;77;50276;-77
2023/08/05 08:36:20;;;;;;;;;;;;;;;24.13;48.33;100773.34;2300257;77;50258;-77
2023/08/05 08:39:22;;;;;;;;;;;;;;;24.09;48.44;100776.16;2300507;76;50649;-77
2023/08/05 08:42:23;;;;;;;;;;;;;;;24.08;48.51;100785.33;2253917;77;51212;-77
2023/08/05 08:45:25;;;;;;;;;;;;;;;24.10;48.50;100783.24;2300408;77;50613;-77
2023/08/05 08:48:27;;;;;;;;;;;;;;;24.12;48.46;100783.00;2300137;77;50598;-77
2023/08/05 08:51:28;;;;;;;;;;;;;;;24.16;48.41;100773.95;2300672;77;50261;-77
2023/08/05 08:54:30;;;;;;;;;;;;;;;24.18;48.43;100773.22;2278601;77;52316;-77
2023/08/05 08:57:31;;;;;;;;;;;;;;;24.16;48.43;100769.37;2282195;76;51497;-76
2023/08/05 09:00:33;;;;;;;;;;;;;;;24.19;48.38;100768.11;2320726;76;51571;-76
2023/08/05 09:03:35;;;;;;;;;;;;;;;24.18;48.38;100761.88;2321256;75;51516;-76
2023/08/05 09:06:38;;;;;;;;;;;;;;;24.20;48.36;100768.41;2308914;75;52585;-77
2023/08/05 09:09:39;;;;;;;;;;;;;;;24.18;48.36;100767.81;2321318;76;52606;-77
2023/08/05 09:12:41;;;;;;;;;;;;;;;24.17;48.41;100764.79;2321351;76;51462;-77
2023/08/05 09:15:43;;;;;;;;;;;;;;;24.12;48.45;100760.88;2321434;76;50316;-77
2023/08/05 09:18:45;;;;;;;;;;;;;;;24.11;48.52;100757.85;2308912;76;52319;-77
2023/08/05 09:21:47;;;;;;;;;;;;;;;24.10;48.52;100762.97;2309182;76;51606;-77
2023/08/05 09:24:48;;;;;;;;;;;;;;;24.12;48.48;100768.14;2309468;76;50673;-77
2023/08/05 09:27:55;;;;;;;;;;;;;;;24.10;48.49;100765.67;2319984;75;50634;-77
2023/08/05 09:30:53;;;;;;;;;;;;;;;24.11;48.48;100756.50;2319477;76;22811;-76
2023/08/05 09:33:55;;;;;;;;;;;;;;;24.12;48.48;100754.12;2295170;76;50538;-77
2023/08/05 09:36:56;;;;;;;;;;;;;;;24.10;48.56;100750.80;2319253;75;50214;-77
2023/08/05 09:39:58;;;;;;;;;;;;;;;24.10;48.52;100746.75;2319544;76;50319;-77
2023/08/05 09:43:02;;;;;;;;;;;;;;;24.09;48.52;100745.06;2308131;76;51651;-76
2023/08/05 09:46:05;;;;;;;;;;;;;;;24.09;48.54;100745.60;2319644;75;22410;-76
2023/08/05 09:49:08;;;;;;;;;;;;;;;24.10;48.53;100737.28;2319614;76;22867;-76
2023/08/05 09:52:11;;;;;;;;;;;;;;;24.09;48.53;100748.30;2319519;76;50379;-77
2023/08/05 09:55:13;;;;;;;;;;;;;;;24.07;48.55;100735.02;2319965;76;22404;-76
2023/08/05 09:58:15;;;;;;;;;;;;;;;24.08;48.58;100732.61;2299385;75;49862;-75
2023/08/05 10:01:17;;;;;;;;;;;;;;;24.07;48.56;100732.32;2288997;76;50277;-77
2023/08/05 10:04:20;;;;;;;;;;;;;;;24.07;48.58;100721.51;2277783;78;51604;-77
2023/08/05 10:07:22;;;;;;;;;;;;;;;24.08;48.60;100726.38;2257299;78;52458;-77
2023/08/05 10:10:24;;;;;;;;;;;;;;;24.08;48.57;100715.05;2258524;78;50310;-77
2023/08/05 10:13:26;;;;;;;;;;;;;;;24.08;48.58;100709.64;2277792;78;51570;-76
2023/08/05 10:16:28;;;;;;;;;;;;;;;24.09;48.56;100703.17;2277489;77;50638;-77
2023/08/05 10:19:31;;;;;;;;;;;;;;;24.09;48.54;100701.81;2233898;78;52325;-78
2023/08/05 10:22:33;;;;;;;;;;;;;;;24.12;48.47;100708.16;2276848;78;51716;-77
2023/08/05 10:25:38;;;;;;;;;;;;;;;24.12;48.51;100705.95;2258580;78;51427;-76
2023/08/05 10:28:41;;;;;;;;;;;;;;;24.09;48.53;100716.69;2286164;76;53658;-77
2023/08/05 10:31:43;;;;;;;;;;;;;;;24.10;48.53;100734.58;2322140;76;50422;-78
2023/08/05 10:34:45;;;;;;;;;;;;;;;24.09;48.53;100727.50;2300428;76;50250;-76
2023/08/05 10:37:48;;;;;;;;;;;;;;;24.10;48.52;100719.72;2300134;76;51518;-76
2023/08/05 10:40:49;;;;;;;;;;;;;;;24.09;48.54;100718.03;2322291;76;51472;-76
2023/08/05 10:43:51;;;;;;;;;;;;;;;24.09;48.56;100713.98;2322341;76;50312;-76
2023/08/05 10:46:53;;;;;;;;;;;;;;;24.10;48.51;100712.13;2300045;76;51120;-77
2023/08/05 10:49:57;;;;;;;;;;;;;;;24.09;48.55;100712.63;2322176;76;50357;-76
2023/08/05 10:52:59;;;;;;;;;;;;;;;24.09;48.53;100707.22;2322195;76;51549;-77
2023/08/05 10:56:01;;;;;;;;;;;;;;;24.10;48.54;100700.79;2322292;75;51510;-77
2023/08/05 10:59:03;;;;;;;;;;;;;;;24.09;48.53;100696.41;2302257;76;50918;-76
2023/08/05 11:02:04;;;;;;;;;;;;;;;24.11;48.48;100692.15;2295498;76;51443;-76
2023/08/05 11:05:09;;;;;;;;;;;;;;;24.10;48.51;100683.75;2295382;76;51490;-77
2023/08/05 11:08:10;;;;;;;;;;;;;;;24.13;48.43;100684.66;2319347;75;51599;-77
2023/08/05 11:11:15;;;;;;;;;;;;;;;24.14;48.42;100683.59;2308181;76;51006;-77
2023/08/05 11:14:20;;;;;;;;;;;;;;;24.17;48.33;100675.57;2295963;76;50408;-77
2023/08/05 11:17:21;;;;;;;;;;;;;;;24.15;48.36;100675.80;2319316;75;51480;-77
2023/08/05 11:20:32;;;;;;;;;;;;;;;24.15;48.40;100677.66;2295412;76;50303;-77
2023/08/05 11:23:35;;;;;;;;;;;;;;;24.14;48.40;100674.13;2319560;76;50428;-77
2023/08/05 11:26:37;;;;;;;;;;;;;;;24.15;48.38;100664.14;2295058;75;51476;-76
2023/08/05 11:29:40;;;;;;;;;;;;;;;24.13;48.40;100658.97;2321372;76;51456;-76
2023/08/05 11:32:43;;;;;;;;;;;;;;;24.15;48.36;100657.38;2322235;76;50326;-76
2023/08/05 11:35:48;;;;;;;;;;;;;;;24.16;48.37;100652.30;2297003;76;49700;-76
2023/08/05 11:38:50;;;;;;;;;;;;;;;24.17;48.32;100647.19;2321950;75;51387;-76
2023/08/05 11:41:52;;;;;;;;;;;;;;;24.12;48.43;100654.59;2322033;75;51557;-76
2023/08/05 11:44:54;;;;;;;;;;;;;;;24.10;48.47;100657.53;2322090;76;51510;-76
2023/08/05 11:47:55;;;;;;;;;;;;;;;24.13;48.46;100662.50;2299797;76;51116;-76
2023/08/05 11:50:58;;;;;;;;;;;;;;;24.11;48.49;100652.42;2322222;76;51541;-76
2023/08/05 11:54:00;;;;;;;;;;;;;;;24.13;48.46;100652.22;2322297;75;51535;-76
2023/08/05 11:57:03;;;;;;;;;;;;;;;24.09;48.54;100645.05;2321874;75;51607;-76
2023/08/05 12:00:09;;;;;;;;;;;;;;;24.08;48.54;100636.65;2288283;76;52525;-77
2023/08/05 12:03:11;;;;;;;;;;;;;;;24.10;48.54;100639.97;2295484;76;51636;-76
2023/08/05 12:06:13;;;;;;;;;;;;;;;24.12;48.47;100635.67;2319299;75;50846;-77
2023/08/05 12:09:14;;;;;;;;;;;;;;;24.15;48.41;100638.45;2319507;76;51539;-76
2023/08/05 12:12:16;;;;;;;;;;;;;;;24.13;48.44;100640.87;2270354;76;52336;-76
2023/08/05 12:15:24;;;;;;;;;;;;;;;24.10;48.50;100633.73;2319659;76;50476;-76
2023/08/05 12:18:23;;;;;;;;;;;;;;;24.11;48.48;100637.55;2319996;75;23331;-77
2023/08/05 12:21:24;;;;;;;;;;;;;;;24.10;48.48;100631.86;2295566;76;50188;-76
2023/08/05 12:24:26;;;;;;;;;;;;;;;24.09;48.51;100625.30;2270749;76;50090;-76
2023/08/05 12:27:28;;;;;;;;;;;;;;;24.10;48.50;100624.28;2297197;76;51435;-77
2023/08/05 12:30:29;;;;;;;;;;;;;;;24.10;48.50;100626.98;2322047;76;50735;-77
2023/08/05 12:33:31;;;;;;;;;;;;;;;24.08;48.53;100619.61;2321862;76;50033;-74
2023/08/05 12:36:32;;;;;;;;;;;;;;;24.09;48.52;100623.42;2309335;75;50906;-75
2023/08/05 12:39:34;;;;;;;;;;;;;;;24.12;48.51;100618.09;2311055;76;50415;-76
2023/08/05 12:42:36;;;;;;;;;;;;;;;24.10;48.53;100614.28;2323795;76;50418;-76
2023/08/05 12:45:37;;;;;;;;;;;;;;;24.10;48.51;100608.05;2321965;76;50726;-76
2023/08/05 12:48:39;;;;;;;;;;;;;;;24.09;48.54;100608.55;2309488;76;51668;-76
2023/08/05 12:51:40;;;;;;;;;;;;;;;24.09;48.56;100610.44;2309606;76;51483;-76
2023/08/05 12:54:42;;;;;;;;;;;;;;;24.08;48.58;100612.31;2321937;76;51459;-75
2023/08/05 12:57:43;;;;;;;;;;;;;;;24.08;48.58;100618.26;2321939;75;51465;-77
2023/08/05 13:00:45;;;;;;;;;;;;;;;24.06;48.60;100614.41;2322027;76;50251;-77
2023/08/05 13:03:47;;;;;;;;;;;;;;;24.06;48.60;100609.00;2309472;76;50322;-77
2023/08/05 13:06:48;;;;;;;;;;;;;;;24.06;48.63;100609.00;2321145;75;50253;-76
2023/08/05 13:09:50;;;;;;;;;;;;;;;24.07;48.59;100608.47;2321207;76;50419;-77
2023/08/05 13:12:51;;;;;;;;;;;;;;;24.06;48.58;100607.65;2283360;76;53764;-76
2023/08/05 13:15:53;;;;;;;;;;;;;;;24.08;48.55;100606.91;2309158;75;50681;-77
2023/08/05 13:18:54;;;;;;;;;;;;;;;24.07;48.60;100613.37;2309012;76;51478;-77
2023/08/05 13:21:56;;;;;;;;;;;;;;;24.08;48.54;100613.67;2309159;76;51550;-77
2023/08/05 13:24:59;;;;;;;;;;;;;;;24.07;48.51;100616.08;2283389;76;51565;-77
2023/08/05 13:28:01;;;;;;;;;;;;;;;24.07;48.52;100611.17;2321157;75;51505;-77
2023/08/05 13:31:03;;;;;;;;;;;;;;;24.07;48.54;100609.33;2320667;76;50241;-77
2023/08/05 13:34:04;;;;;;;;;;;;;;;24.07;48.53;100605.27;2308175;76;52406;-77
2023/08/05 13:37:06;;;;;;;;;;;;;;;24.07;48.54;100605.27;2295078;76;51464;-77
2023/08/05 13:40:10;;;;;;;;;;;;;;;24.07;48.54;100602.56;2295373;76;51487;-77
2023/08/05 13:43:11;;;;;;;;;;;;;;;24.07;48.52;100601.22;2295541;76;22407;-76
2023/08/05 13:46:13;;;;;;;;;;;;;;;24.07;48.53;100594.45;2295098;75;51525;-77
2023/08/05 13:49:14;;;;;;;;;;;;;;;24.07;48.53;100593.11;2269241;76;52960;-76
2023/08/05 13:52:16;;;;;;;;;;;;;;;24.08;48.49;100589.34;2295338;76;51510;-77
2023/08/05 13:55:17;;;;;;;;;;;;;;;24.08;48.49;100586.64;2319655;76;51340;-77
2023/08/05 13:58:19;;;;;;;;;;;;;;;24.07;48.51;100581.44;2319595;75;51460;-77
2023/08/05 14:01:20;;;;;;;;;;;;;;;24.07;48.50;100570.13;2305365;76;52511;-76
2023/08/05 14:04:22;;;;;;;;;;;;;;;24.07;48.52;100564.72;2319587;76;49898;-76
2023/08/05 14:07:24;;;;;;;;;;;;;;;24.06;48.56;100564.93;2295203;76;50338;-76
2023/08/05 14:10:25;;;;;;;;;;;;;;;24.06;48.52;100566.28;2295385;76;51540;-76
2023/08/05 14:13:27;;;;;;;;;;;;;;;24.06;48.54;100556.30;2269915;76;51814;-76
2023/08/05 14:16:29;;;;;;;;;;;;;;;24.06;48.55;100548.19;2319301;75;51483;-76
2023/08/05 14:19:32;;;;;;;;;;;;;;;24.07;48.53;100542.25;2295226;76;51433;-77
2023/08/05 14:22:33;;;;;;;;;;;;;;;24.07;48.51;100547.66;2295961;76;22370;-76
2023/08/05 14:25:35;;;;;;;;;;;;;;;24.07;48.50;100545.80;2319659;76;51491;-76
2023/08/05 14:28:37;;;;;;;;;;;;;;;24.07;48.49;100547.16;2301110;76;50738;-76
2023/08/05 14:31:38;;;;;;;;;;;;;;;24.07;48.54;100548.50;2290571;76;51496;-76
2023/08/05 14:34:40;;;;;;;;;;;;;;;24.07;48.50;100544.45;2277575;77;51573;-76
2023/08/05 14:37:41;;;;;;;;;;;;;;;24.09;48.47;100527.99;2257735;77;51464;-76
2023/08/05 14:40:43;;;;;;;;;;;;;;;24.09;48.46;100532.86;2277624;78;51482;-77
2023/08/05 14:43:45;;;;;;;;;;;;;;;24.09;48.42;100532.86;2257567;77;50057;-77
2023/08/05 14:46:46;;;;;;;;;;;;;;;24.07;48.48;100528.23;2258262;77;50226;-77
2023/08/05 14:49:48;;;;;;;;;;;;;;;24.08;48.52;100525.81;2234012;77;51137;-77
2023/08/05 14:52:49;;;;;;;;;;;;;;;24.07;48.50;100528.23;2277700;78;50728;-76
2023/08/05 14:56:00;;;;;;;;;;;;;;;24.09;48.47;100538.27;2277656;77;51525;-77
2023/08/05 14:59:02;;;;;;;;;;;;;;;24.09;48.45;100538.27;2298386;76;50412;-75
2023/08/05 15:02:03;;;;;;;;;;;;;;;24.09;48.47;100534.22;2279588;76;51196;-77
2023/08/05 15:05:05;;;;;;;;;;;;;;;24.09;48.44;100535.57;2309269;76;51432;-76
2023/08/05 15:08:07;;;;;;;;;;;;;;;24.11;48.38;100529.95;2308971;76;51573;-77
2023/08/05 15:11:11;;;;;;;;;;;;;;;24.11;48.38;100524.02;2321311;76;51557;-77
2023/08/05 15:14:12;;;;;;;;;;;;;;;24.11;48.39;100515.91;2309554;75;22579;-77
2023/08/05 15:17:14;;;;;;;;;;;;;;;24.10;48.38;100519.67;2321025;75;51462;-77
2023/08/05 15:20:15;;;;;;;;;;;;;;;24.10;48.40;100520.20;2321347;76;50186;-77
2023/08/05 15:23:17;;;;;;;;;;;;;;;24.09;48.43;100514.47;2309152;76;50321;-77
2023/08/05 15:26:18;;;;;;;;;;;;;;;24.08;48.44;100505.55;2283243;75;51895;-77
2023/08/05 15:29:20;;;;;;;;;;;;;;;24.09;48.42;100501.78;2308094;76;51404;-77
2023/08/05 15:32:22;;;;;;;;;;;;;;;24.07;48.48;100498.50;2322512;76;50276;-77